Impacts TAF Board
For situational awareness. Not to be used for flight planning purposes.
IDs:

KPBG - Plattsburgh Intl, NY, US

Issued at 2320 UTC 28 Nov 2020
Updated at 0242 UTC 29 Nov 2020
Potential Impact None Slight Moderate High
Time0153Z 29/03Z 29/04Z 29/05Z 29/06Z 29/07Z 29/08Z 29/09Z 29/10Z 29/11Z 29/12Z 29/13Z 29/14Z 29/15Z>>
Type OBS PRVL PRVL PRVL PRVL PRVL PRVL PRVL PRVL PRVL PRVL PRVL PRVL PRVL
VIS 10 >6 >6 >6 >6 >6 >6 >6 >6 >6 >6 >6 >6 >6
CIG 80 60 60 -- -- -- -- -- -- -- -- -- -- --
Cover OVC BKN BKN SCT SCT SCT SCT SCT SCT SCT SCT SCT SCT SCT
FltCat VFR VFR VFR VFR VFR VFR VFR VFR VFR VFR VFR VFR VFR VFR
WX -- -- -- -- -- -- -- -- -- -- -- -- -- --
WDir 220 240 240 220 220 220 220 220 220 220 220 220 220 220
WSpd 5 4 4 4 4 4 4 4 4 4 4 4 4 4
WGst -- -- -- -- -- -- -- -- -- -- -- -- -- --
Raw TAF
KPBG 282320Z 2900/2924 24004KT P6SM BKN060
  FM290500 22004KT P6SM SCT080
  FM291800 16007KT P6SM FEW200


Raw METAR
KPBG 290153Z AUTO 22005KT 10SM OVC080 05/M01 A2995 RMK AO2 SLP145 T00501006
KPBG 290053Z AUTO 22004KT 10SM OVC070 05/M01 A2995 RMK AO2 SLP146 T00501006
KPBG 282353Z AUTO VRB04KT 10SM BKN047 OVC070 06/00 A2996 RMK AO2 SLP148 60000 T00560000 10078 20044 51016

METAR Board
Radar Display
Forecast Discussion
For situational awareness. Not to be used for flight planning purposes.